Chemroad Dita — HODJ — position and weather

sailwx.info

Track history (hours):
 
Tides and Currents Weather Stations Pressure Air Temp Water Temp Dewpoint Dewpoint Depression Visibility Wind Speed Wind Dir Waves Ship Positions

Chemroad Dita

Last reported at 2017-Dec-22 14:45 UTC. Time now 2018-Jan-20 15:29 UTC.
Position N 01°17' E 103°22'.
Warning: this ship's position is 29 days out of date.

Length 174 m; draft 8.3 m.

Type: Tanker. MMSI: 356447000.

Date/timePositionNaut miles runAvg speedWind from/ knotsBaromVisibWave heightAir tempDewpointWater temp
2017-Dec-22 14:45N 01°17' E 103°22'414.8
2017-Dec-22 14:30N 01°15' E 103°24'815.3
2017-Dec-22 13:58N 01°12' E 103°32'613.7
2017-Dec-22 13:30N 01°12' E 103°38'1 2.3
2017-Dec-22 13:00N 01°13' E 103°39'0 0.3
2017-Dec-22 12:20N 01°13' E 103°39'0 0.0
2017-Dec-22 11:56N 01°13' E 103°39'0 0.0
2017-Dec-22 11:29N 01°13' E 103°39'0 0.0
2017-Dec-22 10:50N 01°13' E 103°39'0 0.1
2017-Dec-22 10:26N 01°13' E 103°39'0 0.0
2017-Dec-22 09:56N 01°13' E 103°39'0 0.0
2017-Dec-22 09:26N 01°13' E 103°39'0 0.0
2017-Dec-22 08:53N 01°13' E 103°39'0 0.2
2017-Dec-22 08:14N 01°13' E 103°39'0 0.1
2017-Dec-22 07:53N 01°13' E 103°39'0 0.0
2017-Dec-22 07:14N 01°13' E 103°39'0 0.1
2017-Dec-22 06:56N 01°13' E 103°39'0 0.1
2017-Dec-22 06:26N 01°13' E 103°39'0 0.1
2017-Dec-22 05:56N 01°13' E 103°39'0 0.1
2017-Dec-22 05:26N 01°13' E 103°39'0 0.2
2017-Dec-22 04:53N 01°13' E 103°39'0 0.1
2017-Dec-22 04:17N 01°13' E 103°39'0 0.2
2017-Dec-22 03:56N 01°13' E 103°39'0 0.1
2017-Dec-22 03:26N 01°13' E 103°39'0 0.0
2017-Dec-22 02:59N 01°13' E 103°39'0 0.1
2017-Dec-22 02:30N 01°13' E 103°39'0 0.0
2017-Dec-22 02:00N 01°13' E 103°39'0 0.1
2017-Dec-22 01:30N 01°13' E 103°39'0 0.1
2017-Dec-22 00:59N 01°13' E 103°39'0 0.1
2017-Dec-22 00:30N 01°13' E 103°39'0 0.0
2017-Dec-22 00:00N 01°13' E 103°39'0 0.1
2017-Dec-21 23:30N 01°13' E 103°39'1 2.8
2017-Dec-21 23:00N 01°12' E 103°38'1 2.5
2017-Dec-21 22:30N 01°12' E 103°37'2 3.9
2017-Dec-21 22:00N 01°11' E 103°39'3 5.5
2017-Dec-21 21:30N 01°10' E 103°41'4 7.7
2017-Dec-21 20:59N 01°09' E 103°45'611.7
2017-Dec-21 20:30N 01°12' E 103°50'5 9.6
2017-Dec-21 19:59N 01°14' E 103°55'4 8.6
2017-Dec-21 19:29N 01°16' E 103°59'5 8.7
2017-Dec-21 18:57N 01°16' E 104°03'  
Track history (hours):
 
Tides and Currents Weather Stations Pressure Air Temp Water Temp Dewpoint Dewpoint Depression Visibility Wind Speed Wind Dir Waves Ship Positions

Chemroad Dita

Last reported at 2017-Dec-22 14:45 UTC. Time now 2018-Jan-20 15:29 UTC.
Position N 01°17' E 103°22'.
Warning: this ship's position is 29 days out of date.

Length 174 m; draft 8.3 m.

Type: Tanker. MMSI: 356447000.

Date/timePositionNaut miles runAvg speedWind from/ knotsBaromVisibWave heightAir tempDewpointWater temp
2017-Dec-22 14:45N 01°17' E 103°22'414.8
2017-Dec-22 14:30N 01°15' E 103°24'815.3
2017-Dec-22 13:58N 01°12' E 103°32'613.7
2017-Dec-22 13:30N 01°12' E 103°38'1 2.3
2017-Dec-22 13:00N 01°13' E 103°39'0 0.3
2017-Dec-22 12:20N 01°13' E 103°39'0 0.0
2017-Dec-22 11:56N 01°13' E 103°39'0 0.0
2017-Dec-22 11:29N 01°13' E 103°39'0 0.0
2017-Dec-22 10:50N 01°13' E 103°39'0 0.1
2017-Dec-22 10:26N 01°13' E 103°39'0 0.0
2017-Dec-22 09:56N 01°13' E 103°39'0 0.0
2017-Dec-22 09:26N 01°13' E 103°39'0 0.0
2017-Dec-22 08:53N 01°13' E 103°39'0 0.2
2017-Dec-22 08:14N 01°13' E 103°39'0 0.1
2017-Dec-22 07:53N 01°13' E 103°39'0 0.0
2017-Dec-22 07:14N 01°13' E 103°39'0 0.1
2017-Dec-22 06:56N 01°13' E 103°39'0 0.1
2017-Dec-22 06:26N 01°13' E 103°39'0 0.1
2017-Dec-22 05:56N 01°13' E 103°39'0 0.1
2017-Dec-22 05:26N 01°13' E 103°39'0 0.2
2017-Dec-22 04:53N 01°13' E 103°39'0 0.1
2017-Dec-22 04:17N 01°13' E 103°39'0 0.2
2017-Dec-22 03:56N 01°13' E 103°39'0 0.1
2017-Dec-22 03:26N 01°13' E 103°39'0 0.0
2017-Dec-22 02:59N 01°13' E 103°39'0 0.1
2017-Dec-22 02:30N 01°13' E 103°39'0 0.0
2017-Dec-22 02:00N 01°13' E 103°39'0 0.1
2017-Dec-22 01:30N 01°13' E 103°39'0 0.1
2017-Dec-22 00:59N 01°13' E 103°39'0 0.1
2017-Dec-22 00:30N 01°13' E 103°39'0 0.0
2017-Dec-22 00:00N 01°13' E 103°39'0 0.1
2017-Dec-21 23:30N 01°13' E 103°39'1 2.8
2017-Dec-21 23:00N 01°12' E 103°38'1 2.5
2017-Dec-21 22:30N 01°12' E 103°37'2 3.9
2017-Dec-21 22:00N 01°11' E 103°39'3 5.5
2017-Dec-21 21:30N 01°10' E 103°41'4 7.7
2017-Dec-21 20:59N 01°09' E 103°45'611.7
2017-Dec-21 20:30N 01°12' E 103°50'5 9.6
2017-Dec-21 19:59N 01°14' E 103°55'4 8.6
2017-Dec-21 19:29N 01°16' E 103°59'5 8.7
2017-Dec-21 18:57N 01°16' E 104°03'  

Dump ship's entire track history